Reese AFB, Texas
Current Conditions -  °F | °C
As of 9:53 AM on Friday 24 Oct 2014 (Local Time) from KLBB Reporting Station
Clear Clear  
Wind Chill: 63°   Ceiling: Unl
Heat Index: 63°   Visibility: 10mi
Dew Point: 57°   Wind: 9mph
Humidity: 81%   Direction: 240°WSW
Pressure: 30.19"   Gusts: NA
Location:  33.59°N, 102.03°W
Report Text: KLBB 241453Z 24008KT 10SM CLR 17/14 A3019 RMK AO2 SLP188 T01720139 53012
Loading
Personal Weather Stations






























Interactive Weather Map
Tropical Storm Tracking
New forecast layout! Learn more

10-Day Weather Forecast

Advertisements
Track Severe Weather on mobile